Time;durP1;ratioP1;P1;durP2;ratioP2;P2;SDS_P1;SDS_P2;PMS_P1;PMS_P2;Temp;Humidity;BMP_temperature;BMP_pressure;BME280_temperature;BME280_humidity;BME280_pressure;Samples;Min_cycle;Max_cycle;Signal;HPM_P1;HPM_P2
2021/09/12 00:00:29;;;;;;;33.13;20.47;;;;;;;15.27;94.78;101620.13;2090454;28;20195;-64
2021/09/12 00:01:29;;;;;;;31.00;17.50;;;;;;;15.24;94.64;101630.78;2090353;28;20103;-64
2021/09/12 00:02:30;;;;;;;27.33;16.33;;;;;;;15.19;94.18;101629.22;2090420;28;20133;-64
2021/09/12 00:03:30;;;;;;;27.00;17.50;;;;;;;15.22;94.27;101627.38;2090486;28;20033;-64
2021/09/12 00:04:30;;;;;;;26.53;16.90;;;;;;;15.18;93.65;101627.53;2099311;28;20035;-62
2021/09/12 00:05:30;;;;;;;23.67;16.90;;;;;;;15.15;92.60;101622.41;2090469;28;20078;-63
2021/09/12 00:06:31;;;;;;;24.77;15.97;;;;;;;15.17;92.33;101627.59;2090545;28;20029;-64
2021/09/12 00:07:31;;;;;;;25.47;14.97;;;;;;;15.17;91.67;101624.97;2099248;28;20466;-63
2021/09/12 00:08:31;;;;;;;27.87;15.23;;;;;;;15.15;91.92;101625.06;2099332;28;20028;-64
2021/09/12 00:09:32;;;;;;;26.07;15.57;;;;;;;15.13;91.62;101624.28;2099260;28;20020;-64
2021/09/12 00:10:32;;;;;;;22.13;15.45;;;;;;;15.11;91.40;101630.53;2099344;28;20073;-64
2021/09/12 00:11:33;;;;;;;26.52;15.52;;;;;;;15.10;91.42;101634.94;2099358;28;20027;-64
2021/09/12 00:12:33;;;;;;;24.50;14.80;;;;;;;15.08;91.53;101630.69;2099175;28;20158;-64
2021/09/12 00:13:33;;;;;;;21.10;14.60;;;;;;;15.05;91.65;101626.41;2099159;28;20100;-64
2021/09/12 00:14:34;;;;;;;20.50;15.10;;;;;;;15.04;92.08;101632.59;2099296;28;20017;-64
2021/09/12 00:15:34;;;;;;;20.80;14.50;;;;;;;15.02;91.63;101624.78;2099312;28;20062;-64
2021/09/12 00:16:34;;;;;;;25.30;14.37;;;;;;;15.01;92.34;101636.25;2099244;28;20473;-63
2021/09/12 00:17:35;;;;;;;26.50;14.70;;;;;;;14.98;91.83;101625.03;2099134;28;20437;-64
2021/09/12 00:18:35;;;;;;;24.57;16.43;;;;;;;14.97;91.64;101628.56;2099201;28;20066;-64
2021/09/12 00:19:35;;;;;;;23.47;14.17;;;;;;;14.97;91.59;101633.84;2099240;28;20022;-65
2021/09/12 00:20:36;;;;;;;23.67;14.87;;;;;;;14.95;91.64;101630.44;2099337;28;20024;-64
2021/09/12 00:21:36;;;;;;;21.98;14.13;;;;;;;14.93;92.06;101634.00;2090288;28;20425;-64
2021/09/12 00:22:36;;;;;;;19.27;13.93;;;;;;;14.91;91.68;101630.59;2090410;28;20028;-63
2021/09/12 00:23:36;;;;;;;20.50;13.60;;;;;;;14.90;92.00;101631.53;2099229;28;20507;-65
2021/09/12 00:24:37;;;;;;;27.53;14.13;;;;;;;14.90;92.05;101628.88;2099186;28;20482;-65
2021/09/12 00:25:37;;;;;;;17.90;12.20;;;;;;;14.89;90.89;101621.91;2099264;28;20520;-64
2021/09/12 00:26:37;;;;;;;25.17;13.97;;;;;;;14.89;90.53;101629.78;2099137;28;20052;-64
2021/09/12 00:27:38;;;;;;;21.57;12.40;;;;;;;14.91;90.46;101629.72;2090279;28;20441;-64
2021/09/12 00:28:38;;;;;;;20.27;12.38;;;;;;;14.89;90.78;101631.59;2090342;28;20027;-62
2021/09/12 00:29:38;;;;;;;28.93;14.20;;;;;;;14.87;90.56;101629.03;2099348;28;20130;-64
2021/09/12 00:30:39;;;;;;;21.90;13.07;;;;;;;14.88;90.49;101630.72;2099136;28;20065;-65
2021/09/12 00:31:39;;;;;;;17.47;11.40;;;;;;;14.86;89.82;101627.34;2099156;28;20027;-65
2021/09/12 00:32:39;;;;;;;16.33;11.33;;;;;;;14.87;89.12;101623.78;2099102;28;20024;-63
2021/09/12 00:33:40;;;;;;;18.70;11.43;;;;;;;14.86;89.86;101624.72;2099132;28;20023;-63
2021/09/12 00:34:40;;;;;;;19.53;12.27;;;;;;;14.85;89.94;101625.63;2099158;28;20020;-65
2021/09/12 00:35:40;;;;;;;21.77;11.83;;;;;;;14.81;89.74;101624.06;2099098;28;20103;-65
2021/09/12 00:36:41;;;;;;;18.43;11.37;;;;;;;14.81;89.30;101624.06;2099109;28;20016;-64
2021/09/12 00:37:43;;;;;;;22.13;11.80;;;;;;;14.80;89.07;101627.63;2099111;28;20057;-63
2021/09/12 00:38:43;;;;;;;16.08;10.48;;;;;;;14.80;88.93;101622.38;2099002;28;20023;-63
2021/09/12 00:39:44;;;;;;;19.83;11.60;;;;;;;14.79;88.73;101626.75;2099058;28;20020;-64
2021/09/12 00:40:44;;;;;;;16.43;9.83;;;;;;;14.77;88.36;101622.50;2099076;28;20062;-64
2021/09/12 00:41:45;;;;;;;18.23;10.87;;;;;;;14.74;89.11;101622.63;2099036;28;20030;-63
2021/09/12 00:42:45;;;;;;;17.52;10.38;;;;;;;14.71;88.69;101620.16;2099106;28;20098;-65
2021/09/12 00:43:46;;;;;;;23.00;9.97;;;;;;;14.67;88.91;101617.66;2099043;28;20032;-64
2021/09/12 00:44:46;;;;;;;19.48;10.70;;;;;;;14.64;88.50;101617.81;2099129;28;20036;-64
2021/09/12 00:45:51;;;;;;;15.23;10.33;;;;;;;14.64;88.34;101612.56;2099083;28;20059;-63
2021/09/12 00:46:53;;;;;;;12.50;9.18;;;;;;;14.63;88.43;101618.75;2090101;28;20384;-64
2021/09/12 00:47:53;;;;;;;16.27;10.18;;;;;;;14.63;88.77;101615.25;2090312;28;20103;-64
2021/09/12 00:48:54;;;;;;;17.05;9.93;;;;;;;14.60;88.83;101613.63;2090061;28;20029;-64
2021/09/12 00:49:54;;;;;;;16.40;9.87;;;;;;;14.58;88.62;101612.88;2090083;28;20028;-65
2021/09/12 00:50:54;;;;;;;17.33;11.37;;;;;;;14.56;89.46;101612.06;2098883;28;20036;-63
2021/09/12 00:51:54;;;;;;;15.37;9.87;;;;;;;14.54;89.39;101604.25;2098949;28;20111;-63
2021/09/12 00:53:01;;;;;;;17.83;10.43;;;;;;;14.53;89.87;101614.84;2098824;28;20024;-65
2021/09/12 00:54:04;;;;;;;14.90;10.88;;;;;;;14.51;89.28;101606.19;2099025;28;20367;-64
2021/09/12 00:55:05;;;;;;;19.23;10.27;;;;;;;14.50;89.69;101610.59;2098910;28;20385;-65
2021/09/12 00:56:06;;;;;;;19.15;11.63;;;;;;;14.46;89.37;101609.03;2098880;28;20045;-64
2021/09/12 00:57:10;;;;;;;19.58;11.75;;;;;;;14.48;89.63;101608.97;2098963;28;20039;-65
2021/09/12 00:58:14;;;;;;;20.23;11.02;;;;;;;14.44;89.99;101610.03;2089850;28;20513;-64
2021/09/12 00:59:17;;;;;;;16.77;11.40;;;;;;;14.40;90.30;101606.66;2090441;28;20025;-65
2021/09/12 01:00:17;;;;;;;18.95;11.60;;;;;;;14.35;90.23;101601.66;2098889;28;20482;-64
2021/09/12 01:01:17;;;;;;;22.47;12.03;;;;;;;14.34;90.77;101609.59;2090008;28;20051;-65
2021/09/12 01:02:18;;;;;;;21.33;12.67;;;;;;;14.31;90.81;101600.09;2089937;28;20036;-65
2021/09/12 01:03:19;;;;;;;21.30;11.75;;;;;;;14.28;90.95;101610.72;2098871;28;20033;-64
2021/09/12 01:04:19;;;;;;;24.10;12.90;;;;;;;14.26;91.11;101607.31;2089941;28;20021;-65
2021/09/12 01:05:19;;;;;;;29.77;13.53;;;;;;;14.23;91.40;101612.72;2090123;28;20024;-65
2021/09/12 01:06:21;;;;;;;19.23;12.07;;;;;;;14.19;91.98;101612.00;2098843;28;20366;-63
2021/09/12 01:07:21;;;;;;;25.65;13.70;;;;;;;14.19;92.03;101611.16;2098839;28;20493;-65
2021/09/12 01:08:21;;;;;;;18.70;13.07;;;;;;;14.18;92.25;101609.44;2098950;28;20024;-64
2021/09/12 01:09:22;;;;;;;20.30;13.23;;;;;;;14.15;92.06;101616.56;2098992;28;20086;-64
2021/09/12 01:10:22;;;;;;;27.70;13.07;;;;;;;14.14;92.14;101612.19;2098809;28;20592;-65
2021/09/12 01:11:22;;;;;;;20.20;12.50;;;;;;;14.10;92.29;101613.25;2098851;28;20029;-65
2021/09/12 01:12:23;;;;;;;22.57;12.37;;;;;;;14.05;92.22;101607.38;2098864;28;20485;-64
2021/09/12 01:13:23;;;;;;;22.63;12.93;;;;;;;14.01;92.67;101605.81;2098966;28;20028;-64
2021/09/12 01:14:28;;;;;;;20.63;12.33;;;;;;;13.99;92.47;101610.28;2098697;28;20024;-65
2021/09/12 01:15:29;;;;;;;16.70;12.63;;;;;;;13.96;92.51;101594.69;2098783;28;20099;-65
2021/09/12 01:16:30;;;;;;;16.43;13.17;;;;;;;13.94;92.51;101599.13;2098662;28;20024;-64
2021/09/12 01:17:30;;;;;;;;;;;;;;;13.95;92.37;101603.44;2090156;28;20045;-64
2021/09/12 01:18:31;;;;;;;18.90;12.02;;;;;;;13.93;92.25;101602.69;2089884;28;19971;-65
2021/09/12 01:19:31;;;;;;;19.93;11.53;;;;;;;13.88;92.59;101608.97;2090627;28;20117;-64
2021/09/12 01:20:32;;;;;;;20.17;11.63;;;;;;;13.84;92.41;101602.16;2090575;28;20055;-65
2021/09/12 01:21:32;;;;;;;19.23;11.87;;;;;;;13.81;92.64;101604.94;2090499;28;20025;-63
2021/09/12 01:22:33;;;;;;;20.20;13.02;;;;;;;13.77;92.65;101606.84;2090547;28;20036;-64
2021/09/12 01:23:34;;;;;;;18.65;12.30;;;;;;;13.73;92.93;101609.66;2090541;28;20418;-64
2021/09/12 01:24:36;;;;;;;18.50;11.97;;;;;;;13.70;93.19;101607.16;2089771;28;20072;-64
2021/09/12 01:25:37;;;;;;;16.73;11.50;;;;;;;13.68;93.17;101598.53;2089819;28;20031;-64
2021/09/12 01:26:38;;;;;;;16.63;11.60;;;;;;;13.66;93.29;101606.47;2089745;28;20434;-64
2021/09/12 01:27:38;;;;;;;20.38;11.18;;;;;;;13.63;93.40;101603.97;2090413;28;20378;-63
2021/09/12 01:28:41;;;;;;;21.27;12.37;;;;;;;13.59;93.43;101597.97;2090428;28;20044;-65
2021/09/12 01:29:41;;;;;;;19.48;11.85;;;;;;;13.57;93.50;101602.44;2090427;28;20036;-64
2021/09/12 01:30:41;;;;;;;18.33;12.60;;;;;;;13.55;94.01;101599.03;2090437;28;20099;-65
2021/09/12 01:31:42;;;;;;;22.57;13.43;;;;;;;13.55;93.34;101601.66;2090387;28;20071;-64
2021/09/12 01:32:42;;;;;;;17.42;10.98;;;;;;;13.55;93.43;101601.66;2090348;28;20394;-66
2021/09/12 01:33:42;;;;;;;19.00;12.30;;;;;;;13.51;93.66;101594.84;2090290;28;20021;-66
2021/09/12 01:34:42;;;;;;;21.60;11.87;;;;;;;13.49;93.64;101604.56;2090404;28;20029;-64
2021/09/12 01:35:43;;;;;;;22.03;12.13;;;;;;;13.47;93.66;101606.34;2090347;28;20024;-64
2021/09/12 01:36:43;;;;;;;21.07;11.87;;;;;;;13.46;94.04;101608.13;2089704;28;20028;-65
2021/09/12 01:37:43;;;;;;;19.47;12.03;;;;;;;13.44;93.88;101603.88;2089801;28;20017;-64
2021/09/12 01:38:45;;;;;;;16.60;11.63;;;;;;;13.41;94.00;101604.84;2090162;28;20779;-64
2021/09/12 01:39:45;;;;;;;18.35;11.82;;;;;;;13.38;93.83;101597.13;2090171;28;20028;-65
2021/09/12 01:40:45;;;;;;;19.03;11.53;;;;;;;13.37;93.92;101598.88;2090407;28;20091;-65
2021/09/12 01:41:46;;;;;;;16.50;10.80;;;;;;;13.37;93.51;101601.50;2090272;28;20021;-64
2021/09/12 01:42:46;;;;;;;17.40;12.20;;;;;;;13.36;93.72;101597.19;2090327;28;20025;-65
2021/09/12 01:43:53;;;;;;;18.07;10.77;;;;;;;13.34;93.87;101598.16;2090312;28;20484;-63
2021/09/12 01:44:53;;;;;;;21.42;11.10;;;;;;;13.32;93.46;101598.22;2090314;28;20029;-64
2021/09/12 01:45:53;;;;;;;22.13;11.77;;;;;;;13.31;93.80;101593.88;2090299;28;20021;-64
2021/09/12 01:46:55;;;;;;;18.80;11.03;;;;;;;13.31;93.73;101593.06;2090415;28;20462;-65
2021/09/12 01:48:01;;;;;;;23.67;10.98;;;;;;;13.31;93.74;101593.88;2090279;28;20036;-64
2021/09/12 01:49:04;;;;;;;18.33;11.05;;;;;;;13.31;93.14;101588.63;2090233;28;20402;-65
2021/09/12 01:50:05;;;;;;;25.90;11.95;;;;;;;13.30;93.64;101586.06;2089509;28;20546;-65
2021/09/12 01:51:05;;;;;;;16.67;11.68;;;;;;;13.27;93.27;101589.69;2089665;28;20023;-64
2021/09/12 01:52:06;;;;;;;17.00;10.27;;;;;;;13.26;93.17;101586.22;2090338;28;20031;-64
2021/09/12 01:53:06;;;;;;;16.80;11.17;;;;;;;13.27;93.25;101587.06;2090259;28;20568;-65
2021/09/12 01:54:07;;;;;;;18.23;12.17;;;;;;;13.28;93.07;101588.78;2089608;28;20410;-65
2021/09/12 01:55:08;;;;;;;23.95;12.57;;;;;;;13.26;93.17;101591.47;2089709;28;20023;-64
2021/09/12 01:56:08;;;;;;;22.75;12.90;;;;;;;13.25;93.61;101588.91;2090174;28;20496;-63
2021/09/12 01:57:09;;;;;;;20.33;11.63;;;;;;;13.20;93.32;101583.00;2090273;28;20031;-65
2021/09/12 01:58:09;;;;;;;16.67;10.53;;;;;;;13.16;93.51;101584.03;2090178;28;20048;-65
2021/09/12 01:59:09;;;;;;;18.77;11.53;;;;;;;13.13;93.34;101585.03;2090290;28;20033;-63
2021/09/12 02:00:10;;;;;;;21.43;11.73;;;;;;;13.12;93.38;101584.19;2090249;28;20108;-63
2021/09/12 02:01:10;;;;;;;20.20;11.40;;;;;;;13.09;93.41;101584.31;2090301;28;20067;-63
2021/09/12 02:02:10;;;;;;;21.17;11.93;;;;;;;13.05;93.92;101587.97;2090247;28;20287;-64
2021/09/12 02:03:11;;;;;;;19.57;11.23;;;;;;;13.03;93.72;101583.72;2090277;28;20044;-63
2021/09/12 02:04:11;;;;;;;25.20;12.00;;;;;;;13.01;93.87;101589.84;2089157;28;20032;-62
2021/09/12 02:05:11;;;;;;;18.53;11.70;;;;;;;12.99;93.98;101586.47;2081106;28;20022;-63
2021/09/12 02:06:12;;;;;;;17.60;11.93;;;;;;;12.98;94.26;101591.75;2089570;28;20033;-64
2021/09/12 02:07:12;;;;;;;21.15;12.73;;;;;;;12.98;94.14;101587.38;2090159;28;20067;-63
2021/09/12 02:08:12;;;;;;;21.43;11.90;;;;;;;12.96;93.82;101583.94;2089403;28;20029;-64
2021/09/12 02:09:12;;;;;;;22.13;12.13;;;;;;;12.95;94.46;101591.88;2081253;28;20025;-63
2021/09/12 02:10:13;;;;;;;16.00;10.80;;;;;;;12.94;94.33;101590.19;2081172;28;20072;-63
2021/09/12 02:11:13;;;;;;;16.07;10.77;;;;;;;12.94;94.36;101590.19;2089501;28;20099;-63
2021/09/12 02:12:14;;;;;;;21.83;12.75;;;;;;;12.93;94.45;101583.25;2090140;28;20027;-63
2021/09/12 02:13:14;;;;;;;21.83;11.83;;;;;;;12.92;94.02;101592.84;2090142;28;20021;-63
2021/09/12 02:14:14;;;;;;;22.77;10.60;;;;;;;12.91;94.53;101592.91;2089339;28;20494;-63
2021/09/12 02:15:15;;;;;;;19.07;11.53;;;;;;;12.87;94.57;101590.41;2089586;28;20107;-63
2021/09/12 02:16:17;;;;;;;18.23;12.43;;;;;;;12.85;94.23;101587.03;2090100;28;20060;-61
2021/09/12 02:17:17;;;;;;;22.75;12.48;;;;;;;12.84;94.41;101593.19;2094014;28;20072;-63
2021/09/12 02:18:17;;;;;;;19.27;11.67;;;;;;;12.86;94.54;101599.19;2098292;28;20029;-63
2021/09/12 02:19:18;;;;;;;18.77;12.13;;;;;;;12.84;94.46;101593.19;2098438;28;20055;-62
2021/09/12 02:20:18;;;;;;;16.03;10.30;;;;;;;12.83;94.21;101596.69;2098399;28;20021;-62
2021/09/12 02:21:18;;;;;;;17.17;10.93;;;;;;;12.82;94.71;101592.38;2098453;28;20031;-64
2021/09/12 02:22:19;;;;;;;16.23;10.97;;;;;;;12.78;94.44;101596.03;2098367;28;20043;-64
2021/09/12 02:23:19;;;;;;;19.67;11.53;;;;;;;12.75;94.62;101588.28;2098394;28;20031;-64
2021/09/12 02:24:19;;;;;;;21.50;12.00;;;;;;;12.72;94.89;101585.78;2098415;28;20024;-65
2021/09/12 02:25:19;;;;;;;27.53;11.43;;;;;;;12.72;94.83;101588.41;2098349;28;20024;-64
2021/09/12 02:26:20;;;;;;;22.33;12.37;;;;;;;12.72;94.54;101586.66;2089363;28;20470;-64
2021/09/12 02:27:20;;;;;;;20.40;12.83;;;;;;;12.74;94.69;101589.22;2089542;28;20107;-65
2021/09/12 02:28:20;;;;;;;16.87;10.77;;;;;;;12.75;94.64;101585.66;2098350;28;20030;-64
2021/09/12 02:29:20;;;;;;;23.33;11.17;;;;;;;12.73;94.35;101590.97;2098364;28;20024;-65
2021/09/12 02:30:21;;;;;;;20.40;11.13;;;;;;;12.72;94.45;101593.63;2098366;28;20021;-64
2021/09/12 02:31:21;;;;;;;21.77;13.00;;;;;;;12.72;94.12;101596.25;2098387;28;20491;-64
2021/09/12 02:32:21;;;;;;;19.83;11.27;;;;;;;12.71;94.52;101590.19;2089415;28;20025;-64
2021/09/12 02:33:22;;;;;;;20.60;11.37;;;;;;;12.68;94.76;101602.53;2089517;28;20025;-64
2021/09/12 02:34:22;;;;;;;19.97;10.73;;;;;;;12.65;94.61;101597.41;2098168;28;20051;-64
2021/09/12 02:35:22;;;;;;;17.80;11.33;;;;;;;12.64;94.56;101598.34;2098381;28;20389;-64
2021/09/12 02:36:23;;;;;;;21.40;11.98;;;;;;;12.62;94.72;101598.38;2098489;28;20020;-66
2021/09/12 02:37:23;;;;;;;21.57;11.50;;;;;;;12.60;94.81;101595.81;2098259;28;20509;-65
2021/09/12 02:38:23;;;;;;;20.17;11.73;;;;;;;12.62;94.41;101591.41;2089228;28;20021;-65
2021/09/12 02:39:23;;;;;;;15.37;10.27;;;;;;;12.64;94.44;101593.09;2089394;28;20077;-64
2021/09/12 02:40:24;;;;;;;16.53;10.93;;;;;;;12.62;94.26;101594.00;2098226;28;20072;-64
2021/09/12 02:41:24;;;;;;;17.40;12.07;;;;;;;12.60;94.45;101587.97;2098314;28;20021;-65
2021/09/12 02:42:25;;;;;;;20.67;11.13;;;;;;;12.58;94.03;101592.44;2098347;28;20480;-65
2021/09/12 02:43:27;;;;;;;22.17;11.02;;;;;;;12.57;94.72;101595.97;2098347;28;20025;-64
2021/09/12 02:44:27;;;;;;;14.38;10.52;;;;;;;12.54;94.34;101593.47;2098291;28;20019;-65
2021/09/12 02:45:27;;;;;;;19.93;11.30;;;;;;;12.54;94.77;101592.59;2098371;28;20386;-64
2021/09/12 02:46:27;;;;;;;21.37;10.50;;;;;;;12.51;94.81;101592.72;2098255;28;20447;-64
2021/09/12 02:47:28;;;;;;;21.27;10.47;;;;;;;12.49;94.41;101600.66;2098318;28;20095;-65
2021/09/12 02:48:28;;;;;;;20.30;11.93;;;;;;;12.49;94.63;101592.81;2098326;28;20099;-65
2021/09/12 02:49:28;;;;;;;20.33;10.77;;;;;;;12.47;94.65;101592.00;2098240;28;20012;-63
2021/09/12 02:50:29;;;;;;;20.63;11.77;;;;;;;12.46;94.80;101601.59;2098211;28;20047;-65
2021/09/12 02:51:29;;;;;;;24.37;11.43;;;;;;;12.47;94.22;101599.84;2098491;28;20024;-64
2021/09/12 02:52:29;;;;;;;21.07;10.83;;;;;;;12.49;94.63;101605.88;2098266;28;20096;-64
2021/09/12 02:53:29;;;;;;;17.90;10.17;;;;;;;12.46;94.43;101606.84;2098284;28;20020;-64
2021/09/12 02:54:30;;;;;;;21.00;11.47;;;;;;;12.46;94.59;101600.75;2098192;28;20028;-64
2021/09/12 02:55:30;;;;;;;19.65;11.38;;;;;;;12.42;94.28;101601.78;2098282;28;20438;-65
2021/09/12 02:56:31;;;;;;;18.43;10.77;;;;;;;12.42;94.44;101602.63;2089268;28;20478;-67
2021/09/12 02:57:31;;;;;;;12.23;8.87;;;;;;;12.42;94.53;101601.78;2089278;28;20135;-64
2021/09/12 02:58:31;;;;;;;17.53;10.10;;;;;;;12.42;94.30;101600.00;2089248;28;20071;-64
2021/09/12 02:59:32;;;;;;;15.33;11.07;;;;;;;12.40;94.84;101603.59;2098223;28;20020;-66
2021/09/12 03:00:33;;;;;;;16.83;10.35;;;;;;;12.35;94.93;101599.41;2098233;28;20031;-65
2021/09/12 03:01:33;;;;;;;20.50;11.27;;;;;;;12.36;94.85;101600.25;2098145;28;20103;-64
2021/09/12 03:02:33;;;;;;;17.17;10.97;;;;;;;12.33;94.76;101596.00;2098188;28;20025;-64
2021/09/12 03:03:34;;;;;;;16.23;10.90;;;;;;;12.32;94.61;101598.66;2098148;28;20052;-64
2021/09/12 03:04:35;;;;;;;14.60;10.05;;;;;;;12.31;94.78;101597.81;2089389;28;20358;-64
2021/09/12 03:05:35;;;;;;;16.10;10.17;;;;;;;12.30;95.09;101597.88;2089331;28;20122;-65
2021/09/12 03:06:35;;;;;;;16.03;10.93;;;;;;;12.27;94.83;101590.97;2098153;28;20021;-64
2021/09/12 03:07:35;;;;;;;20.13;10.10;;;;;;;12.28;95.11;101602.31;2098194;28;20028;-65
2021/09/12 03:08:36;;;;;;;16.20;10.20;;;;;;;12.27;95.16;101601.47;2098219;28;20009;-65
2021/09/12 03:09:36;;;;;;;22.57;10.97;;;;;;;12.27;94.92;101600.59;2089199;28;20025;-64
2021/09/12 03:10:36;;;;;;;14.33;9.53;;;;;;;12.24;94.70;101601.56;2089359;28;20414;-63
2021/09/12 03:11:36;;;;;;;17.00;9.97;;;;;;;12.23;95.12;101610.34;2098127;28;20052;-64
2021/09/12 03:12:37;;;;;;;16.43;10.07;;;;;;;12.21;95.21;101602.53;2098195;28;20048;-65
2021/09/12 03:13:37;;;;;;;21.00;10.90;;;;;;;12.21;94.77;101599.06;2098156;28;20028;-65
2021/09/12 03:14:37;;;;;;;15.10;9.50;;;;;;;12.19;95.04;101607.00;2089180;28;20032;-65
2021/09/12 03:15:38;;;;;;;18.53;10.30;;;;;;;12.19;95.32;101598.28;2089336;28;20168;-64
2021/09/12 03:16:38;;;;;;;17.20;10.07;;;;;;;12.19;94.97;101603.50;2089593;28;20017;-64
2021/09/12 03:17:38;;;;;;;16.60;10.17;;;;;;;12.18;95.10;101607.03;2090779;28;20127;-64
2021/09/12 03:18:38;;;;;;;19.03;10.27;;;;;;;12.14;94.97;101600.22;2099618;28;20079;-65
2021/09/12 03:19:39;;;;;;;13.90;9.90;;;;;;;12.12;95.30;101602.03;2090677;28;20032;-65
2021/09/12 03:20:39;;;;;;;14.17;10.43;;;;;;;12.10;95.58;101604.69;2082519;28;20032;-64
2021/09/12 03:21:39;;;;;;;20.60;11.33;;;;;;;12.09;95.20;101603.00;2090864;28;20044;-65
2021/09/12 03:22:40;;;;;;;17.57;9.70;;;;;;;12.06;95.76;101603.97;2099668;28;20455;-65
2021/09/12 03:23:40;;;;;;;18.03;10.67;;;;;;;12.02;95.70;101602.34;2099694;28;20029;-65
2021/09/12 03:24:40;;;;;;;19.10;10.67;;;;;;;12.01;95.61;101599.78;2099689;28;20028;-64
2021/09/12 03:25:40;;;;;;;17.60;10.97;;;;;;;12.01;95.11;101600.59;2090775;28;20625;-65
2021/09/12 03:26:41;;;;;;;15.43;10.70;;;;;;;12.01;95.53;101600.59;2090782;28;20020;-64
2021/09/12 03:27:41;;;;;;;15.67;11.00;;;;;;;11.99;95.67;101597.22;2099548;28;20111;-64
2021/09/12 03:28:41;;;;;;;20.00;11.23;;;;;;;11.97;95.48;101599.88;2099627;28;20382;-64
2021/09/12 03:29:42;;;;;;;17.63;10.87;;;;;;;11.98;96.03;101590.28;2099695;28;20067;-63
2021/09/12 03:30:42;;;;;;;15.97;10.70;;;;;;;11.97;95.35;101591.16;2099673;28;20365;-65
2021/09/12 03:31:42;;;;;;;17.77;10.80;;;;;;;11.96;95.34;101586.84;2099573;28;20021;-65
2021/09/12 03:32:42;;;;;;;15.17;9.73;;;;;;;11.95;95.54;101588.59;2099643;28;20074;-64
2021/09/12 03:33:43;;;;;;;16.10;10.93;;;;;;;11.95;95.81;101590.38;2099542;28;20059;-65
2021/09/12 03:34:43;;;;;;;15.17;9.63;;;;;;;11.95;95.79;101593.00;2099640;28;20016;-65
2021/09/12 03:35:43;;;;;;;23.07;11.80;;;;;;;11.93;95.52;101592.19;2099570;28;20028;-64
2021/09/12 03:36:43;;;;;;;17.90;9.97;;;;;;;11.91;95.58;101597.47;2099613;28;20016;-64
2021/09/12 03:37:44;;;;;;;16.13;10.13;;;;;;;11.88;96.05;101596.75;2099574;28;20465;-65
2021/09/12 03:38:44;;;;;;;17.10;9.83;;;;;;;11.84;95.67;101596.84;2099412;28;20024;-65
2021/09/12 03:39:44;;;;;;;18.57;11.30;;;;;;;11.85;95.96;101601.16;2099533;28;20028;-64
2021/09/12 03:40:45;;;;;;;18.80;10.67;;;;;;;11.89;95.64;101601.06;2099552;28;20055;-67
2021/09/12 03:41:45;;;;;;;14.48;10.20;;;;;;;11.89;95.91;101598.44;2090626;28;20076;-64
2021/09/12 03:42:46;;;;;;;19.33;11.10;;;;;;;11.88;95.41;101595.00;2090711;28;20032;-64
2021/09/12 03:43:46;;;;;;;18.23;10.00;;;;;;;11.90;95.28;101592.31;2090575;28;20063;-65
2021/09/12 03:44:47;;;;;;;13.43;9.77;;;;;;;11.88;95.34;101589.75;2090788;28;20032;-64
2021/09/12 03:45:47;;;;;;;22.98;11.50;;;;;;;11.86;95.19;101596.78;2090563;28;20095;-66
2021/09/12 03:46:47;;;;;;;21.03;10.37;;;;;;;11.83;95.38;101583.81;2090714;28;20088;-65
2021/09/12 03:47:47;;;;;;;18.53;9.27;;;;;;;11.80;95.39;101592.63;2099507;28;20528;-64
2021/09/12 03:48:48;;;;;;;15.90;10.03;;;;;;;11.75;95.54;101591.97;2099462;28;20020;-65
2021/09/12 03:49:48;;;;;;;15.87;10.23;;;;;;;11.73;95.71;101596.38;2099474;28;20090;-63
2021/09/12 03:50:48;;;;;;;17.20;10.30;;;;;;;11.75;95.63;101598.94;2099491;28;20470;-64
2021/09/12 03:51:49;;;;;;;18.13;11.03;;;;;;;11.75;96.03;101591.09;2099581;28;20492;-64
2021/09/12 03:52:49;;;;;;;15.47;9.00;;;;;;;11.75;95.71;101593.72;2099518;28;20043;-65
2021/09/12 03:53:49;;;;;;;21.67;10.43;;;;;;;11.73;95.82;101593.75;2099441;28;20025;-65
2021/09/12 03:54:50;;;;;;;17.50;10.33;;;;;;;11.73;96.28;101593.75;2099497;28;20024;-64
2021/09/12 03:55:50;;;;;;;19.53;12.00;;;;;;;11.72;95.60;101589.44;2099488;28;20052;-64
2021/09/12 03:56:50;;;;;;;16.20;10.13;;;;;;;11.72;95.75;101594.69;2099436;28;20085;-65
2021/09/12 03:57:50;;;;;;;14.87;10.40;;;;;;;11.72;95.97;101594.69;2099485;28;20024;-64
2021/09/12 03:58:51;;;;;;;18.87;11.27;;;;;;;11.70;95.73;101591.25;2099301;28;20024;-65
2021/09/12 03:59:51;;;;;;;19.70;10.43;;;;;;;11.69;96.25;101597.38;2099422;28;20523;-64
2021/09/12 04:00:52;;;;;;;17.40;10.48;;;;;;;11.69;96.11;101594.78;2090459;28;20039;-64
2021/09/12 04:01:52;;;;;;;17.43;10.43;;;;;;;11.68;95.73;101590.47;2090504;28;20052;-64
2021/09/12 04:02:52;;;;;;;14.03;10.07;;;;;;;11.66;96.43;101589.66;2090303;28;20068;-64
2021/09/12 04:03:53;;;;;;;19.80;10.93;;;;;;;11.66;96.00;101590.50;2090499;28;20025;-65
2021/09/12 04:04:53;;;;;;;16.97;10.13;;;;;;;11.65;96.11;101587.94;2099347;28;20481;-65
2021/09/12 04:05:53;;;;;;;15.13;10.10;;;;;;;11.64;95.70;101584.50;2099445;28;20020;-64
2021/09/12 04:06:53;;;;;;;13.33;10.07;;;;;;;11.63;95.69;101584.56;2099327;28;20470;-64
2021/09/12 04:07:54;;;;;;;20.37;12.37;;;;;;;11.62;96.02;101586.31;2099317;28;20056;-64
2021/09/12 04:08:55;;;;;;;14.60;9.43;;;;;;;11.60;96.13;101590.72;2099303;28;20069;-64
2021/09/12 04:09:55;;;;;;;15.93;8.85;;;;;;;11.57;95.97;101591.69;2099143;28;20075;-63
2021/09/12 04:10:55;;;;;;;18.30;9.60;;;;;;;11.56;95.97;101595.22;2099313;28;20389;-64
2021/09/12 04:11:55;;;;;;;15.50;9.93;;;;;;;11.55;95.61;101595.25;2099332;28;20055;-64
2021/09/12 04:12:56;;;;;;;15.33;9.43;;;;;;;11.53;96.24;101595.31;2099327;28;20485;-64
2021/09/12 04:13:56;;;;;;;15.37;10.10;;;;;;;11.53;95.72;101594.47;2099283;28;20070;-64
2021/09/12 04:14:56;;;;;;;19.60;11.33;;;;;;;11.52;96.04;101588.38;2090455;28;20394;-62
2021/09/12 04:15:56;;;;;;;13.37;9.30;;;;;;;11.51;96.12;101591.91;2090303;28;20502;-63
2021/09/12 04:16:57;;;;;;;15.93;9.17;;;;;;;11.52;95.97;101596.22;2099168;28;20032;-62
2021/09/12 04:17:57;;;;;;;21.70;10.53;;;;;;;11.51;96.45;101594.53;2099310;28;20474;-63
2021/09/12 04:18:57;;;;;;;18.10;11.03;;;;;;;11.50;96.43;101603.25;2099158;28;20489;-62
2021/09/12 04:19:58;;;;;;;14.57;9.87;;;;;;;11.49;96.11;101593.72;2099306;28;20028;-62
2021/09/12 04:20:58;;;;;;;14.07;10.15;;;;;;;11.50;96.31;101595.41;2099242;28;20052;-62
2021/09/12 04:21:58;;;;;;;14.37;10.33;;;;;;;11.48;96.28;101597.22;2090312;28;20032;-63
2021/09/12 04:22:59;;;;;;;17.00;10.10;;;;;;;11.50;96.31;101598.03;2090331;28;20082;-63
2021/09/12 04:23:59;;;;;;;23.20;11.87;;;;;;;11.49;95.80;101593.72;2099188;28;20107;-63
2021/09/12 04:24:59;;;;;;;15.53;9.83;;;;;;;11.52;95.81;101592.75;2099081;28;20025;-63
2021/09/12 04:26:00;;;;;;;13.77;8.93;;;;;;;11.52;96.13;101593.59;2099094;28;20036;-62
2021/09/12 04:27:00;;;;;;;14.13;9.37;;;;;;;11.51;95.93;101594.53;2099129;28;20103;-63
2021/09/12 04:28:00;;;;;;;15.10;10.40;;;;;;;11.50;95.67;101598.03;2098626;28;20486;-63
2021/09/12 04:29:01;;;;;;;14.33;9.00;;;;;;;11.49;96.05;101592.88;2090192;28;20063;-63
2021/09/12 04:30:03;;;;;;;15.48;9.70;;;;;;;11.45;96.14;101598.19;2090192;28;20025;-63
2021/09/12 04:31:03;;;;;;;;;;;;;;;11.47;95.86;101595.53;2090845;28;20055;-63
2021/09/12 04:32:04;;;;;;;20.10;9.60;;;;;;;11.46;95.92;101599.91;2090222;28;20313;-63
2021/09/12 04:33:05;;;;;;;13.02;8.50;;;;;;;11.48;95.86;101597.22;2090207;28;20029;-63
2021/09/12 04:34:05;;;;;;;14.35;7.90;;;;;;;11.47;95.87;101600.75;2098921;28;20028;-63
2021/09/12 04:35:06;;;;;;;13.93;7.50;;;;;;;11.45;95.82;101592.09;2090169;28;20032;-63
2021/09/12 04:36:06;;;;;;;14.65;7.90;;;;;;;11.45;96.05;101597.34;2090224;28;20188;-63